sensor_id;sensor_type;location;lat;lon;timestamp;P1;durP1;ratioP1;P2;durP2;ratioP2
17864;SDS011;9058;52.018;4.202;2022-10-16T00:01:34;1.45;;;1.15;;
17864;SDS011;9058;52.018;4.202;2022-10-16T00:04:02;2.00;;;0.90;;
17864;SDS011;9058;52.018;4.202;2022-10-16T00:06:30;2.70;;;1.05;;
17864;SDS011;9058;52.018;4.202;2022-10-16T00:08:57;2.33;;;1.10;;
17864;SDS011;9058;52.018;4.202;2022-10-16T00:11:24;2.63;;;1.23;;
17864;SDS011;9058;52.018;4.202;2022-10-16T00:13:51;3.30;;;1.20;;
17864;SDS011;9058;52.018;4.202;2022-10-16T00:16:19;2.03;;;1.20;;
17864;SDS011;9058;52.018;4.202;2022-10-16T00:18:48;3.13;;;1.13;;
17864;SDS011;9058;52.018;4.202;2022-10-16T00:21:16;2.22;;;1.30;;
17864;SDS011;9058;52.018;4.202;2022-10-16T00:23:43;2.28;;;0.82;;
17864;SDS011;9058;52.018;4.202;2022-10-16T00:26:11;2.38;;;1.13;;
17864;SDS011;9058;52.018;4.202;2022-10-16T00:28:37;2.47;;;1.20;;
17864;SDS011;9058;52.018;4.202;2022-10-16T00:31:05;0.98;;;0.80;;
17864;SDS011;9058;52.018;4.202;2022-10-16T00:33:33;2.22;;;0.80;;
17864;SDS011;9058;52.018;4.202;2022-10-16T00:36:00;1.67;;;1.13;;
17864;SDS011;9058;52.018;4.202;2022-10-16T00:38:27;0.63;;;0.60;;
17864;SDS011;9058;52.018;4.202;2022-10-16T00:40:54;3.30;;;0.98;;
17864;SDS011;9058;52.018;4.202;2022-10-16T00:43:34;1.35;;;0.88;;
17864;SDS011;9058;52.018;4.202;2022-10-16T00:46:01;2.55;;;0.98;;
17864;SDS011;9058;52.018;4.202;2022-10-16T00:48:28;3.85;;;0.98;;
17864;SDS011;9058;52.018;4.202;2022-10-16T00:50:55;3.00;;;0.70;;
17864;SDS011;9058;52.018;4.202;2022-10-16T00:53:23;2.20;;;1.00;;
17864;SDS011;9058;52.018;4.202;2022-10-16T00:55:51;2.15;;;0.80;;
17864;SDS011;9058;52.018;4.202;2022-10-16T00:58:17;2.42;;;1.00;;
17864;SDS011;9058;52.018;4.202;2022-10-16T01:00:44;2.38;;;1.20;;
17864;SDS011;9058;52.018;4.202;2022-10-16T01:03:22;1.05;;;0.70;;
17864;SDS011;9058;52.018;4.202;2022-10-16T01:05:50;3.05;;;1.10;;
17864;SDS011;9058;52.018;4.202;2022-10-16T01:08:22;2.15;;;1.08;;
17864;SDS011;9058;52.018;4.202;2022-10-16T01:10:57;1.65;;;1.20;;
17864;SDS011;9058;52.018;4.202;2022-10-16T01:13:24;3.38;;;1.00;;
17864;SDS011;9058;52.018;4.202;2022-10-16T01:15:55;1.85;;;0.88;;
17864;SDS011;9058;52.018;4.202;2022-10-16T01:18:23;3.42;;;1.08;;
17864;SDS011;9058;52.018;4.202;2022-10-16T01:20:55;2.00;;;1.80;;
17864;SDS011;9058;52.018;4.202;2022-10-16T01:23:27;2.15;;;1.17;;
17864;SDS011;9058;52.018;4.202;2022-10-16T01:26:03;2.17;;;0.73;;
17864;SDS011;9058;52.018;4.202;2022-10-16T01:28:38;3.15;;;0.90;;
17864;SDS011;9058;52.018;4.202;2022-10-16T01:31:05;2.35;;;1.33;;
17864;SDS011;9058;52.018;4.202;2022-10-16T01:33:34;2.20;;;1.00;;
17864;SDS011;9058;52.018;4.202;2022-10-16T01:36:03;1.83;;;1.00;;
17864;SDS011;9058;52.018;4.202;2022-10-16T01:38:33;3.45;;;0.90;;
17864;SDS011;9058;52.018;4.202;2022-10-16T01:41:00;2.05;;;1.02;;
17864;SDS011;9058;52.018;4.202;2022-10-16T01:43:28;1.63;;;1.00;;
17864;SDS011;9058;52.018;4.202;2022-10-16T01:45:59;1.95;;;1.00;;
17864;SDS011;9058;52.018;4.202;2022-10-16T01:48:26;6.43;;;1.50;;
17864;SDS011;9058;52.018;4.202;2022-10-16T01:50:54;1.08;;;0.90;;
17864;SDS011;9058;52.018;4.202;2022-10-16T01:53:21;2.78;;;1.05;;
17864;SDS011;9058;52.018;4.202;2022-10-16T01:55:49;1.17;;;1.02;;
17864;SDS011;9058;52.018;4.202;2022-10-16T01:58:16;2.13;;;1.38;;
17864;SDS011;9058;52.018;4.202;2022-10-16T02:00:43;2.67;;;1.08;;
17864;SDS011;9058;52.018;4.202;2022-10-16T02:03:12;3.38;;;1.30;;
17864;SDS011;9058;52.018;4.202;2022-10-16T02:05:41;3.25;;;1.70;;
17864;SDS011;9058;52.018;4.202;2022-10-16T02:08:08;2.15;;;1.60;;
17864;SDS011;9058;52.018;4.202;2022-10-16T02:10:36;2.25;;;2.00;;
17864;SDS011;9058;52.018;4.202;2022-10-16T02:13:03;2.08;;;1.83;;
17864;SDS011;9058;52.018;4.202;2022-10-16T02:15:31;3.13;;;1.80;;
17864;SDS011;9058;52.018;4.202;2022-10-16T02:17:58;4.93;;;1.95;;
17864;SDS011;9058;52.018;4.202;2022-10-16T02:20:27;2.65;;;2.00;;
17864;SDS011;9058;52.018;4.202;2022-10-16T02:22:54;3.42;;;1.80;;
17864;SDS011;9058;52.018;4.202;2022-10-16T02:25:24;4.50;;;2.17;;
17864;SDS011;9058;52.018;4.202;2022-10-16T02:27:52;2.42;;;2.15;;
17864;SDS011;9058;52.018;4.202;2022-10-16T02:30:21;3.55;;;1.77;;
17864;SDS011;9058;52.018;4.202;2022-10-16T02:32:48;5.93;;;2.47;;
17864;SDS011;9058;52.018;4.202;2022-10-16T02:35:15;2.30;;;2.10;;
17864;SDS011;9058;52.018;4.202;2022-10-16T02:37:44;4.15;;;2.03;;
17864;SDS011;9058;52.018;4.202;2022-10-16T02:40:11;5.10;;;2.03;;
17864;SDS011;9058;52.018;4.202;2022-10-16T02:42:39;3.50;;;1.85;;
17864;SDS011;9058;52.018;4.202;2022-10-16T02:45:06;3.55;;;1.75;;
17864;SDS011;9058;52.018;4.202;2022-10-16T02:47:33;2.88;;;1.60;;
17864;SDS011;9058;52.018;4.202;2022-10-16T02:49:59;5.70;;;1.55;;
17864;SDS011;9058;52.018;4.202;2022-10-16T02:52:27;2.30;;;1.83;;
17864;SDS011;9058;52.018;4.202;2022-10-16T02:54:56;3.38;;;1.88;;
17864;SDS011;9058;52.018;4.202;2022-10-16T02:57:22;2.92;;;1.90;;
17864;SDS011;9058;52.018;4.202;2022-10-16T02:59:49;3.83;;;1.80;;
17864;SDS011;9058;52.018;4.202;2022-10-16T03:02:15;4.18;;;1.77;;
17864;SDS011;9058;52.018;4.202;2022-10-16T03:04:42;7.82;;;1.50;;
17864;SDS011;9058;52.018;4.202;2022-10-16T03:07:09;4.78;;;1.60;;
17864;SDS011;9058;52.018;4.202;2022-10-16T03:09:36;3.58;;;1.20;;
17864;SDS011;9058;52.018;4.202;2022-10-16T03:12:05;3.28;;;1.30;;
17864;SDS011;9058;52.018;4.202;2022-10-16T03:14:32;1.83;;;1.30;;
17864;SDS011;9058;52.018;4.202;2022-10-16T03:16:58;5.80;;;1.10;;
17864;SDS011;9058;52.018;4.202;2022-10-16T03:19:25;3.40;;;1.23;;
17864;SDS011;9058;52.018;4.202;2022-10-16T03:21:51;4.85;;;1.40;;
17864;SDS011;9058;52.018;4.202;2022-10-16T03:24:18;3.53;;;1.13;;
17864;SDS011;9058;52.018;4.202;2022-10-16T03:26:45;2.08;;;1.38;;
17864;SDS011;9058;52.018;4.202;2022-10-16T03:29:13;2.20;;;0.93;;
17864;SDS011;9058;52.018;4.202;2022-10-16T03:31:40;3.97;;;1.25;;
17864;SDS011;9058;52.018;4.202;2022-10-16T03:34:07;2.80;;;1.20;;
17864;SDS011;9058;52.018;4.202;2022-10-16T03:36:33;1.98;;;1.45;;
17864;SDS011;9058;52.018;4.202;2022-10-16T03:39:00;4.40;;;1.00;;
17864;SDS011;9058;52.018;4.202;2022-10-16T03:41:26;10.25;;;1.30;;
17864;SDS011;9058;52.018;4.202;2022-10-16T03:43:53;3.15;;;1.27;;
17864;SDS011;9058;52.018;4.202;2022-10-16T03:46:21;7.43;;;1.67;;
17864;SDS011;9058;52.018;4.202;2022-10-16T03:48:47;5.53;;;1.40;;
17864;SDS011;9058;52.018;4.202;2022-10-16T03:51:14;4.78;;;1.20;;
17864;SDS011;9058;52.018;4.202;2022-10-16T03:53:40;3.13;;;1.50;;
17864;SDS011;9058;52.018;4.202;2022-10-16T03:56:06;4.30;;;1.48;;
17864;SDS011;9058;52.018;4.202;2022-10-16T03:58:33;4.32;;;0.98;;
17864;SDS011;9058;52.018;4.202;2022-10-16T04:00:59;4.97;;;1.60;;
17864;SDS011;9058;52.018;4.202;2022-10-16T04:03:29;3.35;;;1.30;;
17864;SDS011;9058;52.018;4.202;2022-10-16T04:05:55;3.95;;;1.20;;
17864;SDS011;9058;52.018;4.202;2022-10-16T04:08:22;2.17;;;1.08;;
17864;SDS011;9058;52.018;4.202;2022-10-16T04:10:49;8.15;;;1.45;;
17864;SDS011;9058;52.018;4.202;2022-10-16T04:13:15;4.05;;;1.10;;
17864;SDS011;9058;52.018;4.202;2022-10-16T04:15:42;3.22;;;1.20;;
17864;SDS011;9058;52.018;4.202;2022-10-16T04:18:10;4.28;;;1.20;;
17864;SDS011;9058;52.018;4.202;2022-10-16T04:20:38;3.28;;;1.30;;
17864;SDS011;9058;52.018;4.202;2022-10-16T04:23:05;2.08;;;1.17;;
17864;SDS011;9058;52.018;4.202;2022-10-16T04:25:31;3.60;;;1.38;;
17864;SDS011;9058;52.018;4.202;2022-10-16T04:27:58;3.95;;;1.13;;
17864;SDS011;9058;52.018;4.202;2022-10-16T04:30:25;3.45;;;1.60;;
17864;SDS011;9058;52.018;4.202;2022-10-16T04:32:51;2.47;;;1.25;;
17864;SDS011;9058;52.018;4.202;2022-10-16T04:35:18;2.58;;;1.40;;
17864;SDS011;9058;52.018;4.202;2022-10-16T04:37:46;3.40;;;1.40;;
17864;SDS011;9058;52.018;4.202;2022-10-16T04:40:13;4.68;;;1.58;;
17864;SDS011;9058;52.018;4.202;2022-10-16T04:42:39;3.97;;;1.77;;
17864;SDS011;9058;52.018;4.202;2022-10-16T04:45:06;4.70;;;1.63;;
17864;SDS011;9058;52.018;4.202;2022-10-16T04:47:33;3.30;;;1.70;;
17864;SDS011;9058;52.018;4.202;2022-10-16T04:50:00;3.17;;;1.58;;
17864;SDS011;9058;52.018;4.202;2022-10-16T04:52:27;2.63;;;1.85;;
17864;SDS011;9058;52.018;4.202;2022-10-16T04:54:55;1.65;;;1.27;;
17864;SDS011;9058;52.018;4.202;2022-10-16T04:57:26;5.63;;;1.85;;
17864;SDS011;9058;52.018;4.202;2022-10-16T04:59:53;4.13;;;1.30;;
17864;SDS011;9058;52.018;4.202;2022-10-16T05:02:19;9.95;;;1.92;;
17864;SDS011;9058;52.018;4.202;2022-10-16T05:04:46;4.78;;;1.90;;
17864;SDS011;9058;52.018;4.202;2022-10-16T05:07:13;4.38;;;1.80;;
17864;SDS011;9058;52.018;4.202;2022-10-16T05:09:41;7.22;;;1.85;;
17864;SDS011;9058;52.018;4.202;2022-10-16T05:12:09;6.70;;;2.35;;
17864;SDS011;9058;52.018;4.202;2022-10-16T05:14:35;6.63;;;2.45;;
17864;SDS011;9058;52.018;4.202;2022-10-16T05:17:02;6.80;;;2.50;;
17864;SDS011;9058;52.018;4.202;2022-10-16T05:19:28;5.00;;;2.53;;
17864;SDS011;9058;52.018;4.202;2022-10-16T05:21:55;3.95;;;2.10;;
17864;SDS011;9058;52.018;4.202;2022-10-16T05:24:22;3.15;;;1.90;;
17864;SDS011;9058;52.018;4.202;2022-10-16T05:26:49;4.82;;;1.90;;
17864;SDS011;9058;52.018;4.202;2022-10-16T05:29:18;6.40;;;3.10;;
17864;SDS011;9058;52.018;4.202;2022-10-16T05:31:45;4.28;;;2.38;;
17864;SDS011;9058;52.018;4.202;2022-10-16T05:34:11;7.57;;;2.28;;
17864;SDS011;9058;52.018;4.202;2022-10-16T05:36:38;7.50;;;2.22;;
17864;SDS011;9058;52.018;4.202;2022-10-16T05:39:05;4.88;;;2.25;;
17864;SDS011;9058;52.018;4.202;2022-10-16T05:41:31;4.45;;;2.28;;
17864;SDS011;9058;52.018;4.202;2022-10-16T05:43:58;5.50;;;2.40;;
17864;SDS011;9058;52.018;4.202;2022-10-16T05:46:27;7.35;;;2.42;;
17864;SDS011;9058;52.018;4.202;2022-10-16T05:48:53;5.65;;;2.45;;
17864;SDS011;9058;52.018;4.202;2022-10-16T05:51:20;5.75;;;2.00;;
17864;SDS011;9058;52.018;4.202;2022-10-16T05:53:46;5.05;;;1.80;;
17864;SDS011;9058;52.018;4.202;2022-10-16T05:56:13;4.68;;;2.30;;
17864;SDS011;9058;52.018;4.202;2022-10-16T05:58:40;4.13;;;1.80;;
17864;SDS011;9058;52.018;4.202;2022-10-16T06:01:07;5.15;;;1.70;;
17864;SDS011;9058;52.018;4.202;2022-10-16T06:03:38;3.85;;;1.40;;
17864;SDS011;9058;52.018;4.202;2022-10-16T06:06:08;8.15;;;1.63;;
17864;SDS011;9058;52.018;4.202;2022-10-16T06:08:35;8.77;;;1.95;;
17864;SDS011;9058;52.018;4.202;2022-10-16T06:11:02;6.95;;;1.65;;
17864;SDS011;9058;52.018;4.202;2022-10-16T06:13:29;5.45;;;1.52;;
17864;SDS011;9058;52.018;4.202;2022-10-16T06:15:57;6.75;;;1.63;;
17864;SDS011;9058;52.018;4.202;2022-10-16T06:18:24;7.30;;;1.60;;
17864;SDS011;9058;52.018;4.202;2022-10-16T06:20:53;6.03;;;1.20;;
17864;SDS011;9058;52.018;4.202;2022-10-16T06:23:20;5.82;;;1.88;;
17864;SDS011;9058;52.018;4.202;2022-10-16T06:25:47;7.35;;;1.90;;
17864;SDS011;9058;52.018;4.202;2022-10-16T06:28:14;9.18;;;1.60;;
17864;SDS011;9058;52.018;4.202;2022-10-16T06:30:42;6.40;;;1.52;;
17864;SDS011;9058;52.018;4.202;2022-10-16T06:33:10;9.10;;;1.60;;
17864;SDS011;9058;52.018;4.202;2022-10-16T06:35:38;4.20;;;1.63;;
17864;SDS011;9058;52.018;4.202;2022-10-16T06:38:07;8.73;;;1.40;;
17864;SDS011;9058;52.018;4.202;2022-10-16T06:40:34;5.75;;;1.50;;
17864;SDS011;9058;52.018;4.202;2022-10-16T06:43:00;7.85;;;1.77;;
17864;SDS011;9058;52.018;4.202;2022-10-16T06:45:28;4.55;;;1.58;;
17864;SDS011;9058;52.018;4.202;2022-10-16T06:47:54;6.32;;;1.80;;
17864;SDS011;9058;52.018;4.202;2022-10-16T06:50:21;6.05;;;1.98;;
17864;SDS011;9058;52.018;4.202;2022-10-16T06:52:48;5.60;;;1.70;;
17864;SDS011;9058;52.018;4.202;2022-10-16T06:55:17;5.50;;;1.70;;
17864;SDS011;9058;52.018;4.202;2022-10-16T06:57:43;7.90;;;1.92;;
17864;SDS011;9058;52.018;4.202;2022-10-16T07:00:10;9.30;;;2.60;;
17864;SDS011;9058;52.018;4.202;2022-10-16T07:02:37;9.40;;;1.90;;
17864;SDS011;9058;52.018;4.202;2022-10-16T07:05:04;4.78;;;1.85;;
17864;SDS011;9058;52.018;4.202;2022-10-16T07:07:30;9.38;;;2.38;;
17864;SDS011;9058;52.018;4.202;2022-10-16T07:09:57;8.65;;;2.45;;
17864;SDS011;9058;52.018;4.202;2022-10-16T07:12:25;5.13;;;1.88;;
17864;SDS011;9058;52.018;4.202;2022-10-16T07:14:53;7.03;;;2.10;;
17864;SDS011;9058;52.018;4.202;2022-10-16T07:17:20;9.07;;;2.60;;
17864;SDS011;9058;52.018;4.202;2022-10-16T07:19:47;6.30;;;2.00;;
17864;SDS011;9058;52.018;4.202;2022-10-16T07:22:14;7.22;;;2.28;;
17864;SDS011;9058;52.018;4.202;2022-10-16T07:24:40;10.00;;;2.75;;
17864;SDS011;9058;52.018;4.202;2022-10-16T07:27:09;8.65;;;2.10;;
17864;SDS011;9058;52.018;4.202;2022-10-16T07:29:37;10.35;;;2.50;;
17864;SDS011;9058;52.018;4.202;2022-10-16T07:32:04;8.10;;;2.28;;
17864;SDS011;9058;52.018;4.202;2022-10-16T07:34:30;7.80;;;2.35;;
17864;SDS011;9058;52.018;4.202;2022-10-16T07:36:57;5.97;;;1.88;;
17864;SDS011;9058;52.018;4.202;2022-10-16T07:39:23;11.02;;;2.42;;
17864;SDS011;9058;52.018;4.202;2022-10-16T07:41:50;7.88;;;2.17;;
17864;SDS011;9058;52.018;4.202;2022-10-16T07:44:17;6.53;;;2.00;;
17864;SDS011;9058;52.018;4.202;2022-10-16T07:46:45;5.60;;;1.98;;
17864;SDS011;9058;52.018;4.202;2022-10-16T07:49:13;9.50;;;1.95;;
17864;SDS011;9058;52.018;4.202;2022-10-16T07:51:39;8.23;;;1.90;;
17864;SDS011;9058;52.018;4.202;2022-10-16T07:54:07;6.00;;;1.88;;
17864;SDS011;9058;52.018;4.202;2022-10-16T07:56:34;8.40;;;1.98;;
17864;SDS011;9058;52.018;4.202;2022-10-16T07:59:01;7.72;;;1.90;;
17864;SDS011;9058;52.018;4.202;2022-10-16T08:01:27;6.20;;;1.63;;
17864;SDS011;9058;52.018;4.202;2022-10-16T08:03:55;7.90;;;2.22;;
17864;SDS011;9058;52.018;4.202;2022-10-16T08:06:22;6.90;;;2.20;;
17864;SDS011;9058;52.018;4.202;2022-10-16T08:08:49;8.70;;;1.70;;
17864;SDS011;9058;52.018;4.202;2022-10-16T08:11:15;7.07;;;2.38;;
17864;SDS011;9058;52.018;4.202;2022-10-16T08:13:42;7.75;;;2.00;;
17864;SDS011;9058;52.018;4.202;2022-10-16T08:16:09;8.48;;;2.40;;
17864;SDS011;9058;52.018;4.202;2022-10-16T08:18:37;8.32;;;1.60;;
17864;SDS011;9058;52.018;4.202;2022-10-16T08:21:07;7.53;;;1.83;;
17864;SDS011;9058;52.018;4.202;2022-10-16T08:23:35;7.20;;;1.50;;
17864;SDS011;9058;52.018;4.202;2022-10-16T08:26:03;7.07;;;1.90;;
17864;SDS011;9058;52.018;4.202;2022-10-16T08:28:30;6.68;;;1.75;;
17864;SDS011;9058;52.018;4.202;2022-10-16T08:31:04;6.82;;;1.30;;
17864;SDS011;9058;52.018;4.202;2022-10-16T08:33:30;10.93;;;2.55;;
17864;SDS011;9058;52.018;4.202;2022-10-16T08:36:00;10.75;;;2.47;;
17864;SDS011;9058;52.018;4.202;2022-10-16T08:38:28;7.28;;;2.05;;
17864;SDS011;9058;52.018;4.202;2022-10-16T08:40:56;7.90;;;1.63;;
17864;SDS011;9058;52.018;4.202;2022-10-16T08:43:31;7.78;;;2.47;;
17864;SDS011;9058;52.018;4.202;2022-10-16T08:46:06;8.25;;;2.05;;
17864;SDS011;9058;52.018;4.202;2022-10-16T08:48:39;12.60;;;2.67;;
17864;SDS011;9058;52.018;4.202;2022-10-16T08:51:10;6.57;;;1.80;;
17864;SDS011;9058;52.018;4.202;2022-10-16T08:53:40;12.43;;;2.38;;
17864;SDS011;9058;52.018;4.202;2022-10-16T08:56:09;5.63;;;1.70;;
17864;SDS011;9058;52.018;4.202;2022-10-16T08:58:35;12.13;;;2.45;;
17864;SDS011;9058;52.018;4.202;2022-10-16T09:01:03;6.05;;;1.88;;
17864;SDS011;9058;52.018;4.202;2022-10-16T09:03:33;12.23;;;1.75;;
17864;SDS011;9058;52.018;4.202;2022-10-16T09:06:07;9.73;;;2.30;;
17864;SDS011;9058;52.018;4.202;2022-10-16T09:08:36;8.80;;;1.90;;
17864;SDS011;9058;52.018;4.202;2022-10-16T09:11:09;12.55;;;2.90;;
17864;SDS011;9058;52.018;4.202;2022-10-16T09:13:42;6.70;;;2.05;;
17864;SDS011;9058;52.018;4.202;2022-10-16T09:16:12;10.48;;;2.15;;
17864;SDS011;9058;52.018;4.202;2022-10-16T09:18:43;8.68;;;1.85;;
17864;SDS011;9058;52.018;4.202;2022-10-16T09:21:13;9.02;;;2.10;;
17864;SDS011;9058;52.018;4.202;2022-10-16T09:23:41;15.82;;;2.70;;
17864;SDS011;9058;52.018;4.202;2022-10-16T09:26:11;7.85;;;1.80;;
17864;SDS011;9058;52.018;4.202;2022-10-16T09:28:38;6.45;;;1.48;;
17864;SDS011;9058;52.018;4.202;2022-10-16T09:31:08;10.18;;;2.45;;
17864;SDS011;9058;52.018;4.202;2022-10-16T09:33:37;10.55;;;2.25;;
17864;SDS011;9058;52.018;4.202;2022-10-16T09:36:06;7.45;;;1.58;;
17864;SDS011;9058;52.018;4.202;2022-10-16T09:38:35;11.10;;;2.17;;
17864;SDS011;9058;52.018;4.202;2022-10-16T09:41:02;16.10;;;2.47;;
17864;SDS011;9058;52.018;4.202;2022-10-16T09:43:33;12.40;;;2.03;;
17864;SDS011;9058;52.018;4.202;2022-10-16T09:46:01;13.00;;;2.15;;
17864;SDS011;9058;52.018;4.202;2022-10-16T09:48:30;11.40;;;1.88;;
17864;SDS011;9058;52.018;4.202;2022-10-16T09:50:59;10.32;;;2.00;;
17864;SDS011;9058;52.018;4.202;2022-10-16T09:53:27;9.15;;;2.00;;
17864;SDS011;9058;52.018;4.202;2022-10-16T09:56:03;13.00;;;2.35;;
17864;SDS011;9058;52.018;4.202;2022-10-16T09:58:33;7.53;;;1.67;;
17864;SDS011;9058;52.018;4.202;2022-10-16T10:01:00;10.23;;;2.65;;
17864;SDS011;9058;52.018;4.202;2022-10-16T10:03:32;11.40;;;2.50;;
17864;SDS011;9058;52.018;4.202;2022-10-16T10:06:00;11.23;;;2.22;;
17864;SDS011;9058;52.018;4.202;2022-10-16T10:08:27;10.57;;;1.85;;
17864;SDS011;9058;52.018;4.202;2022-10-16T10:10:53;12.00;;;2.42;;
17864;SDS011;9058;52.018;4.202;2022-10-16T10:13:21;11.73;;;1.98;;
17864;SDS011;9058;52.018;4.202;2022-10-16T10:15:50;11.48;;;2.65;;
17864;SDS011;9058;52.018;4.202;2022-10-16T10:18:18;14.00;;;2.10;;
17864;SDS011;9058;52.018;4.202;2022-10-16T10:20:45;10.68;;;2.50;;
17864;SDS011;9058;52.018;4.202;2022-10-16T10:23:20;11.90;;;2.30;;
17864;SDS011;9058;52.018;4.202;2022-10-16T10:25:49;8.48;;;2.30;;
17864;SDS011;9058;52.018;4.202;2022-10-16T10:28:22;11.23;;;2.30;;
17864;SDS011;9058;52.018;4.202;2022-10-16T10:30:56;10.82;;;2.90;;
17864;SDS011;9058;52.018;4.202;2022-10-16T10:33:28;13.48;;;2.05;;
17864;SDS011;9058;52.018;4.202;2022-10-16T10:35:57;8.68;;;1.77;;
17864;SDS011;9058;52.018;4.202;2022-10-16T10:38:30;12.75;;;2.20;;
17864;SDS011;9058;52.018;4.202;2022-10-16T10:41:04;8.82;;;1.90;;
17864;SDS011;9058;52.018;4.202;2022-10-16T10:43:39;7.78;;;2.35;;
17864;SDS011;9058;52.018;4.202;2022-10-16T10:46:12;10.57;;;2.30;;
17864;SDS011;9058;52.018;4.202;2022-10-16T10:48:47;9.68;;;2.72;;
17864;SDS011;9058;52.018;4.202;2022-10-16T10:51:19;11.38;;;2.13;;
17864;SDS011;9058;52.018;4.202;2022-10-16T10:53:49;6.68;;;1.55;;
17864;SDS011;9058;52.018;4.202;2022-10-16T10:56:22;11.73;;;2.58;;
17864;SDS011;9058;52.018;4.202;2022-10-16T10:58:59;9.55;;;1.95;;
17864;SDS011;9058;52.018;4.202;2022-10-16T11:01:32;8.77;;;2.08;;
17864;SDS011;9058;52.018;4.202;2022-10-16T11:04:07;8.68;;;2.00;;
17864;SDS011;9058;52.018;4.202;2022-10-16T11:06:39;7.18;;;1.52;;
17864;SDS011;9058;52.018;4.202;2022-10-16T11:09:08;8.88;;;1.98;;
17864;SDS011;9058;52.018;4.202;2022-10-16T11:11:38;11.32;;;1.92;;
17864;SDS011;9058;52.018;4.202;2022-10-16T11:14:10;7.47;;;1.95;;
17864;SDS011;9058;52.018;4.202;2022-10-16T11:16:41;10.32;;;1.75;;
17864;SDS011;9058;52.018;4.202;2022-10-16T11:19:11;10.25;;;1.85;;
17864;SDS011;9058;52.018;4.202;2022-10-16T11:21:41;13.38;;;2.05;;
17864;SDS011;9058;52.018;4.202;2022-10-16T11:24:11;10.93;;;1.85;;
17864;SDS011;9058;52.018;4.202;2022-10-16T11:26:41;11.98;;;1.85;;
17864;SDS011;9058;52.018;4.202;2022-10-16T11:29:10;11.63;;;1.85;;
17864;SDS011;9058;52.018;4.202;2022-10-16T11:31:41;9.30;;;2.00;;
17864;SDS011;9058;52.018;4.202;2022-10-16T11:34:12;7.72;;;2.15;;
17864;SDS011;9058;52.018;4.202;2022-10-16T11:36:43;6.53;;;1.85;;
17864;SDS011;9058;52.018;4.202;2022-10-16T11:39:13;9.80;;;1.90;;
17864;SDS011;9058;52.018;4.202;2022-10-16T11:41:44;10.43;;;1.90;;
17864;SDS011;9058;52.018;4.202;2022-10-16T11:44:16;9.50;;;1.40;;
17864;SDS011;9058;52.018;4.202;2022-10-16T11:46:48;6.35;;;1.58;;
17864;SDS011;9058;52.018;4.202;2022-10-16T11:49:16;10.55;;;2.20;;
17864;SDS011;9058;52.018;4.202;2022-10-16T11:51:45;8.38;;;2.13;;
17864;SDS011;9058;52.018;4.202;2022-10-16T11:54:17;8.93;;;2.22;;
17864;SDS011;9058;52.018;4.202;2022-10-16T11:56:48;7.63;;;2.55;;
17864;SDS011;9058;52.018;4.202;2022-10-16T11:59:18;9.70;;;2.05;;
17864;SDS011;9058;52.018;4.202;2022-10-16T12:01:49;10.20;;;1.88;;
17864;SDS011;9058;52.018;4.202;2022-10-16T12:04:20;10.50;;;1.92;;
17864;SDS011;9058;52.018;4.202;2022-10-16T12:06:49;12.40;;;1.65;;
17864;SDS011;9058;52.018;4.202;2022-10-16T12:09:19;8.65;;;2.08;;
17864;SDS011;9058;52.018;4.202;2022-10-16T12:11:46;10.45;;;1.67;;
17864;SDS011;9058;52.018;4.202;2022-10-16T12:14:18;11.50;;;2.42;;
17864;SDS011;9058;52.018;4.202;2022-10-16T12:16:55;11.13;;;2.08;;
17864;SDS011;9058;52.018;4.202;2022-10-16T12:19:22;8.88;;;1.80;;
17864;SDS011;9058;52.018;4.202;2022-10-16T12:21:49;7.85;;;1.63;;
17864;SDS011;9058;52.018;4.202;2022-10-16T12:24:21;7.20;;;1.90;;
17864;SDS011;9058;52.018;4.202;2022-10-16T12:26:48;14.40;;;2.28;;
17864;SDS011;9058;52.018;4.202;2022-10-16T12:29:23;13.27;;;2.20;;
17864;SDS011;9058;52.018;4.202;2022-10-16T12:31:56;9.88;;;2.20;;
17864;SDS011;9058;52.018;4.202;2022-10-16T12:34:25;12.60;;;1.90;;
17864;SDS011;9058;52.018;4.202;2022-10-16T12:36:53;11.63;;;3.00;;
17864;SDS011;9058;52.018;4.202;2022-10-16T12:39:20;8.10;;;1.98;;
17864;SDS011;9058;52.018;4.202;2022-10-16T12:42:00;7.03;;;1.40;;
17864;SDS011;9058;52.018;4.202;2022-10-16T12:44:32;8.75;;;2.00;;
17864;SDS011;9058;52.018;4.202;2022-10-16T12:47:01;15.55;;;2.22;;
17864;SDS011;9058;52.018;4.202;2022-10-16T12:49:29;6.55;;;1.65;;
17864;SDS011;9058;52.018;4.202;2022-10-16T12:51:56;8.80;;;1.88;;
17864;SDS011;9058;52.018;4.202;2022-10-16T12:54:25;6.10;;;1.75;;
17864;SDS011;9058;52.018;4.202;2022-10-16T12:56:58;7.43;;;2.00;;
17864;SDS011;9058;52.018;4.202;2022-10-16T12:59:32;8.60;;;1.83;;
17864;SDS011;9058;52.018;4.202;2022-10-16T13:02:08;5.05;;;1.65;;
17864;SDS011;9058;52.018;4.202;2022-10-16T13:07:46;9.07;;;1.98;;
17864;SDS011;9058;52.018;4.202;2022-10-16T13:10:15;8.85;;;1.95;;
17864;SDS011;9058;52.018;4.202;2022-10-16T13:12:52;10.93;;;1.67;;
17864;SDS011;9058;52.018;4.202;2022-10-16T13:15:25;12.35;;;2.88;;
17864;SDS011;9058;52.018;4.202;2022-10-16T13:17:56;10.32;;;2.30;;
17864;SDS011;9058;52.018;4.202;2022-10-16T13:20:26;8.00;;;2.30;;
17864;SDS011;9058;52.018;4.202;2022-10-16T13:22:58;9.15;;;1.90;;
17864;SDS011;9058;52.018;4.202;2022-10-16T13:25:30;9.80;;;2.00;;
17864;SDS011;9058;52.018;4.202;2022-10-16T13:27:59;9.43;;;1.73;;
17864;SDS011;9058;52.018;4.202;2022-10-16T13:30:27;10.55;;;1.75;;
17864;SDS011;9058;52.018;4.202;2022-10-16T13:35:58;5.63;;;1.50;;
17864;SDS011;9058;52.018;4.202;2022-10-16T13:38:25;13.02;;;2.65;;
17864;SDS011;9058;52.018;4.202;2022-10-16T13:40:54;11.35;;;2.42;;
17864;SDS011;9058;52.018;4.202;2022-10-16T13:43:22;7.53;;;1.80;;
17864;SDS011;9058;52.018;4.202;2022-10-16T13:45:53;8.52;;;1.70;;
17864;SDS011;9058;52.018;4.202;2022-10-16T13:48:19;11.88;;;2.28;;
17864;SDS011;9058;52.018;4.202;2022-10-16T13:50:46;12.05;;;2.30;;
17864;SDS011;9058;52.018;4.202;2022-10-16T13:53:14;8.32;;;1.70;;
17864;SDS011;9058;52.018;4.202;2022-10-16T13:55:41;9.52;;;1.85;;
17864;SDS011;9058;52.018;4.202;2022-10-16T13:58:08;7.80;;;2.03;;
17864;SDS011;9058;52.018;4.202;2022-10-16T14:00:37;11.88;;;1.77;;
17864;SDS011;9058;52.018;4.202;2022-10-16T14:03:05;10.32;;;2.22;;
17864;SDS011;9058;52.018;4.202;2022-10-16T14:05:33;11.50;;;2.70;;
17864;SDS011;9058;52.018;4.202;2022-10-16T14:08:00;10.05;;;2.28;;
17864;SDS011;9058;52.018;4.202;2022-10-16T14:10:29;11.43;;;2.10;;
17864;SDS011;9058;52.018;4.202;2022-10-16T14:12:57;12.52;;;1.88;;
17864;SDS011;9058;52.018;4.202;2022-10-16T14:15:24;11.70;;;2.17;;
17864;SDS011;9058;52.018;4.202;2022-10-16T14:17:51;18.48;;;3.72;;
17864;SDS011;9058;52.018;4.202;2022-10-16T14:20:18;11.35;;;2.28;;
17864;SDS011;9058;52.018;4.202;2022-10-16T14:22:47;11.48;;;2.15;;
17864;SDS011;9058;52.018;4.202;2022-10-16T14:25:25;11.40;;;1.90;;
17864;SDS011;9058;52.018;4.202;2022-10-16T14:28:00;8.90;;;2.22;;
17864;SDS011;9058;52.018;4.202;2022-10-16T14:30:28;11.35;;;2.08;;
17864;SDS011;9058;52.018;4.202;2022-10-16T14:32:55;9.77;;;2.00;;
17864;SDS011;9058;52.018;4.202;2022-10-16T14:35:23;9.68;;;2.08;;
17864;SDS011;9058;52.018;4.202;2022-10-16T14:37:51;10.63;;;1.98;;
17864;SDS011;9058;52.018;4.202;2022-10-16T14:40:18;8.52;;;1.65;;
17864;SDS011;9058;52.018;4.202;2022-10-16T14:42:44;8.02;;;1.70;;
17864;SDS011;9058;52.018;4.202;2022-10-16T14:45:17;9.70;;;2.28;;
17864;SDS011;9058;52.018;4.202;2022-10-16T14:47:47;11.55;;;2.30;;
17864;SDS011;9058;52.018;4.202;2022-10-16T14:50:14;10.95;;;1.70;;
17864;SDS011;9058;52.018;4.202;2022-10-16T14:52:41;11.27;;;2.15;;
17864;SDS011;9058;52.018;4.202;2022-10-16T14:55:09;14.57;;;2.20;;
17864;SDS011;9058;52.018;4.202;2022-10-16T14:57:37;10.38;;;1.73;;
17864;SDS011;9058;52.018;4.202;2022-10-16T15:00:06;10.02;;;1.80;;
17864;SDS011;9058;52.018;4.202;2022-10-16T15:02:38;9.23;;;1.55;;
17864;SDS011;9058;52.018;4.202;2022-10-16T15:05:10;8.73;;;2.08;;
17864;SDS011;9058;52.018;4.202;2022-10-16T15:07:37;11.77;;;2.00;;
17864;SDS011;9058;52.018;4.202;2022-10-16T15:10:04;10.77;;;2.40;;
17864;SDS011;9058;52.018;4.202;2022-10-16T15:12:31;12.23;;;2.45;;